Time;durP1;ratioP1;P1;durP2;ratioP2;P2;SDS_P1;SDS_P2;PMS_P1;PMS_P2;Temp;Humidity;BMP_temperature;BMP_pressure;BME280_temperature;BME280_humidity;BME280_pressure;Samples;Min_cycle;Max_cycle;Signal;HPM_P1;HPM_P2
2023/08/25 00:00:28;;;;;;;0.20;0.20;;;;;;;;;;1039983;28;20084;-73
2023/08/25 00:00:58;;;;;;;0.35;0.32;;;;;;;;;;1043589;28;20485;-73
2023/08/25 00:01:29;;;;;;;1.35;0.63;;;;;;;;;;1043845;28;20866;-73
2023/08/25 00:01:59;;;;;;;0.10;0.10;;;;;;;;;;1043719;28;20405;-73
2023/08/25 00:02:30;;;;;;;0.00;0.00;;;;;;;;;;1043584;28;20027;-73
2023/08/25 00:03:00;;;;;;;0.30;0.13;;;;;;;;;;1043718;28;20120;-73
2023/08/25 00:03:30;;;;;;;4.07;1.38;;;;;;;;;;1039741;28;20017;-73
2023/08/25 00:04:02;;;;;;;4.70;0.45;;;;;;;;;;1039757;28;20025;-73
2023/08/25 00:04:32;;;;;;;6.45;0.95;;;;;;;;;;1043907;28;20037;-73
2023/08/25 00:05:05;;;;;;;0.00;0.00;;;;;;;;;;1043663;28;20017;-73
2023/08/25 00:05:39;;;;;;;5.38;1.58;;;;;;;;;;1048055;28;20024;-73
2023/08/25 00:06:09;;;;;;;1.30;1.20;;;;;;;;;;1047845;28;20028;-73
2023/08/25 00:06:40;;;;;;;0.00;0.00;;;;;;;;;;1047999;28;20484;-73
2023/08/25 00:07:10;;;;;;;0.55;0.30;;;;;;;;;;1047477;28;20036;-73
2023/08/25 00:07:40;;;;;;;0.47;0.47;;;;;;;;;;1043839;28;20082;-73
2023/08/25 00:08:11;;;;;;;1.60;1.50;;;;;;;;;;1043752;28;20071;-73
2023/08/25 00:08:41;;;;;;;3.60;0.47;;;;;;;;;;1039558;28;20085;-73
2023/08/25 00:09:12;;;;;;;0.88;0.88;;;;;;;;;;1039629;28;20029;-73
2023/08/25 00:09:46;;;;;;;0.03;0.03;;;;;;;;;;1035694;28;20022;-73
2023/08/25 00:10:16;;;;;;;0.25;0.20;;;;;;;;;;1040166;28;20044;-73
2023/08/25 00:10:47;;;;;;;1.13;1.02;;;;;;;;;;1039483;28;20492;-73
2023/08/25 00:11:18;;;;;;;0.05;0.05;;;;;;;;;;1040278;28;20075;-73
2023/08/25 00:14:04;;;;;;;0.00;0.00;;;;;;;;;;1043991;28;20029;-73
2023/08/25 00:14:34;;;;;;;0.00;0.00;;;;;;;;;;1044106;28;20469;-73
2023/08/25 00:15:05;;;;;;;0.30;0.30;;;;;;;;;;1047841;28;20103;-73
2023/08/25 00:15:36;;;;;;;0.00;0.00;;;;;;;;;;1048152;28;20127;-73
2023/08/25 00:16:08;;;;;;;0.45;0.45;;;;;;;;;;1046861;28;20012;-73
2023/08/25 00:16:39;;;;;;;0.00;0.00;;;;;;;;;;1047430;28;20012;-73
2023/08/25 00:17:09;;;;;;;0.20;0.20;;;;;;;;;;1043661;28;20051;-75
2023/08/25 00:17:40;;;;;;;0.40;0.40;;;;;;;;;;1044114;28;20036;-73
2023/08/25 00:18:10;;;;;;;0.95;0.95;;;;;;;;;;1047893;28;20111;-73
2023/08/25 00:18:41;;;;;;;0.10;0.10;;;;;;;;;;1044210;28;20044;-74
2023/08/25 00:19:17;;;;;;;0.15;0.15;;;;;;;;;;1044098;28;20017;-74
2023/08/25 00:19:47;;;;;;;0.03;0.03;;;;;;;;;;1044112;28;20044;-74
2023/08/25 00:20:18;;;;;;;0.03;0.03;;;;;;;;;;1044113;28;20033;-74
2023/08/25 00:20:49;;;;;;;0.00;0.00;;;;;;;;;;1046330;28;20571;-74
2023/08/25 00:21:41;;;;;;;0.98;0.98;;;;;;;;;;1043702;28;20123;-74
2023/08/25 00:22:12;;;;;;;0.70;0.65;;;;;;;;;;1043675;28;20023;-74
2023/08/25 00:22:43;;;;;;;0.10;0.10;;;;;;;;;;1042516;28;20040;-74
2023/08/25 00:23:13;;;;;;;0.15;0.15;;;;;;;;;;1043506;28;20032;-74
2023/08/25 00:23:44;;;;;;;0.20;0.17;;;;;;;;;;1039475;28;20017;-74
2023/08/25 00:24:15;;;;;;;0.90;0.60;;;;;;;;;;1043525;28;20493;-74
2023/08/25 00:24:46;;;;;;;0.20;0.20;;;;;;;;;;1047924;28;20472;-74
2023/08/25 00:25:19;;;;;;;0.15;0.15;;;;;;;;;;1047934;28;20028;-74
2023/08/25 00:25:50;;;;;;;0.10;0.10;;;;;;;;;;1043548;28;20032;-74
2023/08/25 00:26:21;;;;;;;0.73;0.73;;;;;;;;;;1043320;28;20589;-74
2023/08/25 00:26:52;;;;;;;0.15;0.15;;;;;;;;;;1044545;28;20036;-74
2023/08/25 00:27:23;;;;;;;1.38;0.90;;;;;;;;;;1044220;28;20055;-74
2023/08/25 00:27:54;;;;;;;0.22;0.20;;;;;;;;;;1040604;28;20106;-72
2023/08/25 00:28:30;;;;;;;0.05;0.05;;;;;;;;;;1040784;28;20366;-73
2023/08/25 00:29:00;;;;;;;0.00;0.00;;;;;;;;;;1040165;28;20028;-73
2023/08/25 00:29:31;;;;;;;0.05;0.05;;;;;;;;;;1043533;28;20040;-73
2023/08/25 00:30:01;;;;;;;1.20;0.20;;;;;;;;;;1044336;28;20029;-73
2023/08/25 00:30:32;;;;;;;2.35;2.03;;;;;;;;;;1044755;28;20033;-73
2023/08/25 00:31:02;;;;;;;0.43;0.43;;;;;;;;;;1044230;28;20115;-73
2023/08/25 00:31:33;;;;;;;0.10;0.10;;;;;;;;;;1044530;28;20025;-73
2023/08/25 00:32:04;;;;;;;0.52;0.45;;;;;;;;;;1040501;28;20385;-73
2023/08/25 00:32:34;;;;;;;1.45;1.13;;;;;;;;;;1040319;28;20501;-73
2023/08/25 00:33:05;;;;;;;0.77;0.22;;;;;;;;;;1040321;28;20460;-73
2023/08/25 00:33:35;;;;;;;0.10;0.10;;;;;;;;;;1036311;28;20065;-73
2023/08/25 00:34:06;;;;;;;0.20;0.20;;;;;;;;;;1036266;28;20025;-73
2023/08/25 00:34:36;;;;;;;0.47;0.47;;;;;;;;;;1040469;28;20029;-73
2023/08/25 00:35:07;;;;;;;1.85;1.45;;;;;;;;;;1040314;28;20505;-73
2023/08/25 00:35:40;;;;;;;0.43;0.38;;;;;;;;;;1040897;28;20033;-73
2023/08/25 00:36:10;;;;;;;0.35;0.25;;;;;;;;;;1040217;28;20398;-73
2023/08/25 00:36:41;;;;;;;4.75;1.38;;;;;;;;;;1039421;28;20037;-74
2023/08/25 00:37:11;;;;;;;0.05;0.05;;;;;;;;;;1039888;28;20057;-73
2023/08/25 00:37:42;;;;;;;0.00;0.00;;;;;;;;;;1040214;28;20061;-74
2023/08/25 00:38:12;;;;;;;0.08;0.08;;;;;;;;;;1044389;28;20055;-73
2023/08/25 00:38:43;;;;;;;0.40;0.40;;;;;;;;;;1040343;28;20034;-73
2023/08/25 00:39:13;;;;;;;0.00;0.00;;;;;;;;;;1040629;28;20030;-73
2023/08/25 00:39:44;;;;;;;0.25;0.22;;;;;;;;;;1042095;28;20053;-73
2023/08/25 00:40:15;;;;;;;0.03;0.03;;;;;;;;;;1044509;28;20029;-73
2023/08/25 00:40:45;;;;;;;0.13;0.13;;;;;;;;;;1044289;28;20024;-73
2023/08/25 00:41:16;;;;;;;2.40;2.20;;;;;;;;;;1044486;28;20029;-73
2023/08/25 00:41:46;;;;;;;0.38;0.38;;;;;;;;;;1043985;28;20090;-73
2023/08/25 00:42:16;;;;;;;1.33;0.68;;;;;;;;;;1048627;28;20494;-73
2023/08/25 00:42:47;;;;;;;0.00;0.00;;;;;;;;;;1048545;28;20111;-73
2023/08/25 00:43:17;;;;;;;0.22;0.22;;;;;;;;;;1048549;28;20047;-73
2023/08/25 00:43:53;;;;;;;0.93;0.90;;;;;;;;;;1044255;28;20029;-73
2023/08/25 00:44:23;;;;;;;0.85;0.85;;;;;;;;;;1044419;28;20074;-73
2023/08/25 00:47:09;;;;;;;5.85;0.95;;;;;;;;;;1040511;28;20029;-73
2023/08/25 00:47:40;;;;;;;0.68;0.65;;;;;;;;;;1040137;28;20051;-73
2023/08/25 00:48:10;;;;;;;4.47;1.42;;;;;;;;;;1040268;28;20116;-73
2023/08/25 00:48:41;;;;;;;6.35;2.50;;;;;;;;;;1040386;28;20070;-73
2023/08/25 00:49:12;;;;;;;1.02;0.93;;;;;;;;;;1040407;28;20580;-73
2023/08/25 00:49:42;;;;;;;4.95;0.57;;;;;;;;;;1045066;28;20025;-73
2023/08/25 00:50:13;;;;;;;1.50;0.88;;;;;;;;;;1048183;28;20098;-73
2023/08/25 00:50:44;;;;;;;1.80;1.35;;;;;;;;;;1048364;28;20480;-73
2023/08/25 00:51:15;;;;;;;1.20;0.77;;;;;;;;;;1044821;28;20458;-73
2023/08/25 00:51:45;;;;;;;1.17;0.93;;;;;;;;;;1044584;28;20031;-73
2023/08/25 00:52:16;;;;;;;3.97;2.08;;;;;;;;;;1044840;28;20033;-74
2023/08/25 00:52:47;;;;;;;2.75;0.70;;;;;;;;;;1044563;28;20029;-74
2023/08/25 00:53:18;;;;;;;12.50;1.50;;;;;;;;;;1044444;28;20021;-73
2023/08/25 00:53:48;;;;;;;7.68;2.25;;;;;;;;;;1044355;28;20025;-73
2023/08/25 00:54:21;;;;;;;9.75;3.83;;;;;;;;;;1044381;28;20024;-73
2023/08/25 00:54:53;;;;;;;8.07;1.77;;;;;;;;;;1039874;28;20030;-73
2023/08/25 00:55:24;;;;;;;8.32;2.28;;;;;;;;;;1040112;28;20022;-73
2023/08/25 00:55:54;;;;;;;15.32;4.97;;;;;;;;;;1040050;28;20116;-73
2023/08/25 00:56:25;;;;;;;12.23;4.35;;;;;;;;;;1037307;28;20026;-73
2023/08/25 00:56:56;;;;;;;11.60;4.82;;;;;;;;;;1040177;28;20033;-73
2023/08/25 00:57:27;;;;;;;11.05;3.47;;;;;;;;;;1044359;28;20032;-73
2023/08/25 00:57:58;;;;;;;15.73;4.07;;;;;;;;;;1044161;28;20024;-73
2023/08/25 00:58:28;;;;;;;3.40;1.90;;;;;;;;;;1044508;28;20461;-73
2023/08/25 00:58:59;;;;;;;14.35;4.13;;;;;;;;;;1044563;28;20021;-73
2023/08/25 00:59:30;;;;;;;6.05;2.72;;;;;;;;;;1044318;28;20032;-73
2023/08/25 01:00:00;;;;;;;5.13;1.75;;;;;;;;;;1044179;28;20024;-73
2023/08/25 01:00:30;;;;;;;9.15;1.80;;;;;;;;;;1040309;28;20033;-73
2023/08/25 01:01:03;;;;;;;1.48;1.30;;;;;;;;;;1040078;28;20023;-73
2023/08/25 01:01:35;;;;;;;1.02;0.77;;;;;;;;;;1044242;28;20478;-73
2023/08/25 01:02:06;;;;;;;15.85;3.00;;;;;;;;;;1044086;28;20028;-73
2023/08/25 01:02:36;;;;;;;1.80;1.55;;;;;;;;;;1044670;28;20029;-73
2023/08/25 01:03:41;;;;;;;2.75;1.40;;;;;;;;;;1044592;28;20552;-73
2023/08/25 01:06:27;;;;;;;1.55;1.30;;;;;;;;;;1044664;28;20033;-73
2023/08/25 01:06:57;;;;;;;3.65;2.03;;;;;;;;;;1044589;28;20463;-73
2023/08/25 01:07:28;;;;;;;6.15;2.00;;;;;;;;;;1044396;28;20032;-73
2023/08/25 01:07:58;;;;;;;1.98;1.38;;;;;;;;;;1044378;28;20029;-73
2023/08/25 01:08:29;;;;;;;1.05;0.75;;;;;;;;;;1044419;28;20130;-73
2023/08/25 01:08:59;;;;;;;1.85;1.70;;;;;;;;;;1042789;28;20034;-73
2023/08/25 01:09:31;;;;;;;7.45;3.33;;;;;;;;;;1043816;28;20116;-73
2023/08/25 01:10:03;;;;;;;2.00;1.45;;;;;;;;;;1044181;28;20017;-73
2023/08/25 01:10:57;;;;;;;5.68;1.90;;;;;;;;;;1044418;28;20025;-73
2023/08/25 01:11:46;;;;;;;6.22;1.48;;;;;;;;;;1043882;28;20082;-73
2023/08/25 01:12:27;;;;;;;1.00;0.57;;;;;;;;;;1044686;28;20036;-73
2023/08/25 01:13:10;;;;;;;5.25;1.58;;;;;;;;;;1044604;28;20116;-73
2023/08/25 01:13:59;;;;;;;2.92;1.00;;;;;;;;;;1044660;28;20029;-74
2023/08/25 01:14:40;;;;;;;3.22;1.88;;;;;;;;;;1044243;28;20013;-73
2023/08/25 01:15:12;;;;;;;1.98;0.68;;;;;;;;;;1044271;28;20029;-73
2023/08/25 01:15:45;;;;;;;3.38;2.55;;;;;;;;;;1043931;28;20036;-73
2023/08/25 01:16:17;;;;;;;0.93;0.63;;;;;;;;;;1038075;28;20562;-73
2023/08/25 01:17:06;;;;;;;4.03;1.17;;;;;;;;;;1039434;28;20116;-73
2023/08/25 01:17:45;;;;;;;0.20;0.20;;;;;;;;;;1039079;28;20025;-73
2023/08/25 01:18:18;;;;;;;0.10;0.10;;;;;;;;;;1043156;28;20464;-73
2023/08/25 01:18:48;;;;;;;0.57;0.57;;;;;;;;;;1048137;28;20035;-73
2023/08/25 01:19:25;;;;;;;0.55;0.55;;;;;;;;;;1045373;28;20071;-73
2023/08/25 01:19:55;;;;;;;2.53;2.30;;;;;;;;;;1039857;28;20026;-73
2023/08/25 01:20:26;;;;;;;0.73;0.73;;;;;;;;;;1040178;28;20117;-73
2023/08/25 01:20:57;;;;;;;0.75;0.75;;;;;;;;;;1043184;28;20025;-73
2023/08/25 01:21:28;;;;;;;1.50;1.08;;;;;;;;;;1040069;28;20029;-73
2023/08/25 01:21:59;;;;;;;0.75;0.75;;;;;;;;;;1040365;28;20393;-73
2023/08/25 01:22:33;;;;;;;0.47;0.47;;;;;;;;;;1041064;28;20025;-73
2023/08/25 01:23:07;;;;;;;1.50;1.40;;;;;;;;;;1044532;28;20056;-73
2023/08/25 01:23:58;;;;;;;6.63;0.63;;;;;;;;;;1044740;28;20032;-73
2023/08/25 01:24:29;;;;;;;1.50;1.40;;;;;;;;;;1044564;28;20115;-73
2023/08/25 01:25:14;;;;;;;1.48;0.45;;;;;;;;;;1044535;28;20116;-73
2023/08/25 01:25:48;;;;;;;0.75;0.60;;;;;;;;;;1044490;28;20017;-73
2023/08/25 01:26:18;;;;;;;0.30;0.28;;;;;;;;;;1044599;28;20035;-74
2023/08/25 01:26:49;;;;;;;0.05;0.05;;;;;;;;;;1044441;28;20048;-73
2023/08/25 01:27:20;;;;;;;3.00;0.32;;;;;;;;;;1044594;28;20072;-73
2023/08/25 01:27:50;;;;;;;1.42;0.70;;;;;;;;;;1043808;28;20444;-73
2023/08/25 01:28:21;;;;;;;0.90;0.35;;;;;;;;;;1040145;28;20132;-73
2023/08/25 01:28:51;;;;;;;0.55;0.40;;;;;;;;;;1040166;28;20052;-73
2023/08/25 01:29:22;;;;;;;0.08;0.08;;;;;;;;;;1040157;28;20581;-74
2023/08/25 01:29:52;;;;;;;0.30;0.20;;;;;;;;;;1044148;28;20021;-74
2023/08/25 01:30:23;;;;;;;0.10;0.10;;;;;;;;;;1044541;28;20029;-74
2023/08/25 01:30:59;;;;;;;0.20;0.20;;;;;;;;;;1044434;28;20040;-72
2023/08/25 01:31:29;;;;;;;1.55;1.08;;;;;;;;;;1044236;28;20025;-74
2023/08/25 01:31:59;;;;;;;1.85;1.52;;;;;;;;;;1043987;28;20021;-73
2023/08/25 01:32:30;;;;;;;1.17;1.08;;;;;;;;;;1044132;28;20025;-73
2023/08/25 01:33:01;;;;;;;0.20;0.20;;;;;;;;;;1044203;28;20096;-73
2023/08/25 01:33:32;;;;;;;0.32;0.22;;;;;;;;;;1044237;28;20068;-73
2023/08/25 01:34:02;;;;;;;0.30;0.30;;;;;;;;;;1043857;28;20116;-73
2023/08/25 01:34:33;;;;;;;0.65;0.65;;;;;;;;;;1044073;28;20107;-73
2023/08/25 01:35:04;;;;;;;1.10;1.00;;;;;;;;;;1043975;28;20056;-73
2023/08/25 01:35:41;;;;;;;0.80;0.80;;;;;;;;;;1044726;28;20024;-73
2023/08/25 01:36:18;;;;;;;1.85;0.15;;;;;;;;;;1044490;28;20036;-74
2023/08/25 01:36:56;;;;;;;0.10;0.05;;;;;;;;;;1044495;28;20054;-73
2023/08/25 01:37:30;;;;;;;0.00;0.00;;;;;;;;;;1044535;28;20036;-74
2023/08/25 01:38:06;;;;;;;0.35;0.30;;;;;;;;;;1043619;28;20025;-74
2023/08/25 01:38:46;;;;;;;2.40;0.82;;;;;;;;;;1044099;28;20017;-73
2023/08/25 01:39:16;;;;;;;0.75;0.45;;;;;;;;;;1044144;28;20028;-74
2023/08/25 01:39:48;;;;;;;1.40;1.30;;;;;;;;;;1042147;28;20044;-74
2023/08/25 01:40:23;;;;;;;0.30;0.30;;;;;;;;;;1041665;28;20152;-74
2023/08/25 01:41:12;;;;;;;1.65;0.47;;;;;;;;;;1046733;28;20436;-73
2023/08/25 01:41:43;;;;;;;0.80;0.80;;;;;;;;;;1045215;28;20481;-73
2023/08/25 01:42:14;;;;;;;0.95;0.90;;;;;;;;;;1044545;28;20056;-73
2023/08/25 01:42:45;;;;;;;3.33;0.70;;;;;;;;;;1044345;28;20056;-73
2023/08/25 01:43:18;;;;;;;0.00;0.00;;;;;;;;;;1044255;28;20428;-73
2023/08/25 01:43:50;;;;;;;2.13;0.68;;;;;;;;;;1044095;28;20365;-74
2023/08/25 01:44:21;;;;;;;1.02;1.02;;;;;;;;;;1044148;28;20124;-74
2023/08/25 01:44:53;;;;;;;1.75;1.63;;;;;;;;;;1044195;28;20031;-74
2023/08/25 01:45:24;;;;;;;0.65;0.45;;;;;;;;;;1044382;28;20056;-73
2023/08/25 01:45:56;;;;;;;0.05;0.05;;;;;;;;;;1042884;28;20504;-74
2023/08/25 01:46:27;;;;;;;0.15;0.15;;;;;;;;;;1044283;28;20031;-73
2023/08/25 01:47:05;;;;;;;1.08;0.77;;;;;;;;;;1044115;28;20032;-73
2023/08/25 01:47:36;;;;;;;0.20;0.15;;;;;;;;;;1042376;28;20028;-74
2023/08/25 01:48:08;;;;;;;0.70;0.70;;;;;;;;;;1040259;28;20025;-74
2023/08/25 01:48:39;;;;;;;1.17;0.43;;;;;;;;;;1040388;28;20128;-74
2023/08/25 01:49:12;;;;;;;2.60;1.75;;;;;;;;;;1040226;28;20025;-74
2023/08/25 01:49:43;;;;;;;0.38;0.30;;;;;;;;;;1040016;28;20120;-74
2023/08/25 01:50:15;;;;;;;0.88;0.30;;;;;;;;;;1039827;28;20033;-74
2023/08/25 01:50:45;;;;;;;0.75;0.60;;;;;;;;;;1039753;28;20029;-74
2023/08/25 01:51:16;;;;;;;0.10;0.10;;;;;;;;;;1040017;28;20057;-74
2023/08/25 01:51:47;;;;;;;0.60;0.55;;;;;;;;;;1039548;28;20037;-73
2023/08/25 01:52:18;;;;;;;0.25;0.25;;;;;;;;;;1040401;28;20032;-73
2023/08/25 01:52:48;;;;;;;0.32;0.30;;;;;;;;;;1040220;28;20060;-74
2023/08/25 01:53:19;;;;;;;0.00;0.00;;;;;;;;;;1040348;28;20029;-74
2023/08/25 01:53:52;;;;;;;0.43;0.35;;;;;;;;;;1040178;28;20064;-74
2023/08/25 01:54:22;;;;;;;0.00;0.00;;;;;;;;;;1040226;28;20052;-74
2023/08/25 01:54:53;;;;;;;3.03;0.60;;;;;;;;;;1040231;28;20021;-74
2023/08/25 01:55:23;;;;;;;0.70;0.70;;;;;;;;;;1040251;28;20048;-74
2023/08/25 01:55:54;;;;;;;0.10;0.03;;;;;;;;;;1038416;28;20021;-73
2023/08/25 01:56:24;;;;;;;0.98;0.93;;;;;;;;;;1041657;28;20485;-73
2023/08/25 01:56:55;;;;;;;0.52;0.25;;;;;;;;;;1041097;28;20374;-74
2023/08/25 01:57:25;;;;;;;0.00;0.00;;;;;;;;;;1039614;28;20030;-73
2023/08/25 01:57:56;;;;;;;0.17;0.17;;;;;;;;;;1035426;28;20478;-74
2023/08/25 01:58:27;;;;;;;0.80;0.80;;;;;;;;;;1039912;28;20371;-74
2023/08/25 01:58:58;;;;;;;0.17;0.17;;;;;;;;;;1035572;28;20050;-74
2023/08/25 01:59:28;;;;;;;2.42;1.55;;;;;;;;;;1036042;28;20022;-74
2023/08/25 01:59:59;;;;;;;0.45;0.38;;;;;;;;;;1039934;28;20084;-74
2023/08/25 02:00:29;;;;;;;3.00;0.38;;;;;;;;;;1040036;28;20140;-74
2023/08/25 02:01:00;;;;;;;0.17;0.15;;;;;;;;;;1039750;28;20193;-73
2023/08/25 02:01:30;;;;;;;0.63;0.47;;;;;;;;;;1040474;28;20027;-73
2023/08/25 02:02:01;;;;;;;2.10;1.30;;;;;;;;;;1040077;28;20083;-73
2023/08/25 02:02:31;;;;;;;0.38;0.25;;;;;;;;;;1040236;28;20294;-73
2023/08/25 02:03:02;;;;;;;0.20;0.20;;;;;;;;;;1039749;28;20044;-74
2023/08/25 02:03:33;;;;;;;0.00;0.00;;;;;;;;;;1040214;28;20025;-74
2023/08/25 02:04:03;;;;;;;0.77;0.57;;;;;;;;;;1039904;28;20481;-74
2023/08/25 02:04:34;;;;;;;1.52;1.33;;;;;;;;;;1043347;28;20111;-74
2023/08/25 02:05:04;;;;;;;0.60;0.60;;;;;;;;;;1044310;28;20033;-74
2023/08/25 02:05:35;;;;;;;0.22;0.17;;;;;;;;;;1044504;28;20029;-74
2023/08/25 02:06:07;;;;;;;0.40;0.30;;;;;;;;;;1044074;28;20036;-74
2023/08/25 02:06:38;;;;;;;0.17;0.17;;;;;;;;;;1047992;28;20070;-73
2023/08/25 02:07:08;;;;;;;2.38;0.70;;;;;;;;;;1043998;28;20129;-73
2023/08/25 02:07:39;;;;;;;0.10;0.10;;;;;;;;;;1039646;28;20497;-73
2023/08/25 02:08:09;;;;;;;2.65;1.10;;;;;;;;;;1039541;28;20572;-73
2023/08/25 02:08:40;;;;;;;9.85;1.83;;;;;;;;;;1039774;28;20179;-74
2023/08/25 02:09:10;;;;;;;0.10;0.10;;;;;;;;;;1044035;28;20033;-74
2023/08/25 02:09:41;;;;;;;0.68;0.30;;;;;;;;;;1044307;28;20036;-74
2023/08/25 02:10:11;;;;;;;0.00;0.00;;;;;;;;;;1047903;28;20489;-74
2023/08/25 02:10:42;;;;;;;1.17;0.95;;;;;;;;;;1048104;28;20123;-73
2023/08/25 02:11:12;;;;;;;0.88;0.75;;;;;;;;;;1048082;28;20111;-73
2023/08/25 02:11:43;;;;;;;0.20;0.20;;;;;;;;;;1048242;28;20035;-73
2023/08/25 02:12:13;;;;;;;0.13;0.13;;;;;;;;;;1044145;28;20140;-73
2023/08/25 02:12:44;;;;;;;1.38;1.27;;;;;;;;;;1044204;28;20078;-74
2023/08/25 02:13:15;;;;;;;1.95;0.73;;;;;;;;;;1044404;28;20067;-73
2023/08/25 02:13:45;;;;;;;1.08;0.63;;;;;;;;;;1043785;28;20036;-74
2023/08/25 02:14:16;;;;;;;2.88;2.00;;;;;;;;;;1043717;28;20021;-73
2023/08/25 02:14:46;;;;;;;0.47;0.47;;;;;;;;;;1044065;28;20036;-74
2023/08/25 02:15:17;;;;;;;0.98;0.90;;;;;;;;;;1044011;28;20028;-74
2023/08/25 02:15:49;;;;;;;4.03;0.45;;;;;;;;;;1043229;28;20486;-73
2023/08/25 02:16:19;;;;;;;0.60;0.60;;;;;;;;;;1040700;28;20017;-74
2023/08/25 02:16:50;;;;;;;0.17;0.17;;;;;;;;;;1044110;28;20029;-74
2023/08/25 02:17:20;;;;;;;9.23;0.65;;;;;;;;;;1044155;28;20041;-74
2023/08/25 02:17:51;;;;;;;0.35;0.30;;;;;;;;;;1044012;28;20021;-74
2023/08/25 02:18:21;;;;;;;0.13;0.13;;;;;;;;;;1043715;28;20036;-73
2023/08/25 02:18:52;;;;;;;0.10;0.10;;;;;;;;;;1044209;28;20032;-73
2023/08/25 02:19:22;;;;;;;0.55;0.47;;;;;;;;;;1043928;28;20049;-73
2023/08/25 02:19:53;;;;;;;0.50;0.50;;;;;;;;;;1047743;28;20024;-73
2023/08/25 02:20:23;;;;;;;0.20;0.10;;;;;;;;;;1043697;28;20421;-73
2023/08/25 02:20:55;;;;;;;0.32;0.08;;;;;;;;;;1039544;28;20025;-73
2023/08/25 02:21:26;;;;;;;0.28;0.28;;;;;;;;;;1039884;28;20040;-73
2023/08/25 02:21:56;;;;;;;1.40;0.43;;;;;;;;;;1040007;28;20120;-74
2023/08/25 02:22:27;;;;;;;0.65;0.30;;;;;;;;;;1043989;28;20044;-74
2023/08/25 02:22:57;;;;;;;1.13;0.85;;;;;;;;;;1043806;28;20135;-74
2023/08/25 02:23:28;;;;;;;1.55;0.80;;;;;;;;;;1043960;28;20032;-74
2023/08/25 02:23:58;;;;;;;1.00;0.40;;;;;;;;;;1043808;28;20501;-73
2023/08/25 02:24:30;;;;;;;3.30;1.58;;;;;;;;;;1043605;28;20421;-74
2023/08/25 02:25:00;;;;;;;0.80;0.73;;;;;;;;;;1047880;28;20507;-74
2023/08/25 02:25:31;;;;;;;0.30;0.30;;;;;;;;;;1043861;28;20051;-75
2023/08/25 02:26:02;;;;;;;0.75;0.57;;;;;;;;;;1043492;28;20025;-74
2023/08/25 02:26:32;;;;;;;2.70;1.17;;;;;;;;;;1043162;28;20152;-73
2023/08/25 02:27:03;;;;;;;0.25;0.25;;;;;;;;;;1043644;28;20479;-73
2023/08/25 02:27:36;;;;;;;0.10;0.10;;;;;;;;;;1043690;28;20093;-73
2023/08/25 02:28:07;;;;;;;2.38;1.08;;;;;;;;;;1043879;28;20481;-74
2023/08/25 02:28:37;;;;;;;2.90;1.27;;;;;;;;;;1044080;28;20450;-74
2023/08/25 02:29:08;;;;;;;0.63;0.40;;;;;;;;;;1043374;28;20128;-75
2023/08/25 02:29:39;;;;;;;0.40;0.40;;;;;;;;;;1040131;28;20478;-73
2023/08/25 02:30:09;;;;;;;0.85;0.75;;;;;;;;;;1043306;28;20029;-73
2023/08/25 02:30:40;;;;;;;1.17;0.52;;;;;;;;;;1044185;28;20174;-73
2023/08/25 02:31:10;;;;;;;0.22;0.22;;;;;;;;;;1044168;28;20036;-73
2023/08/25 02:31:41;;;;;;;0.60;0.60;;;;;;;;;;1044372;28;20032;-73
2023/08/25 02:32:12;;;;;;;0.52;0.45;;;;;;;;;;1044154;28;20052;-73
2023/08/25 02:32:42;;;;;;;3.03;1.27;;;;;;;;;;1044055;28;20029;-74
2023/08/25 02:33:13;;;;;;;0.55;0.55;;;;;;;;;;1042868;28;20020;-74
2023/08/25 02:33:44;;;;;;;1.30;1.08;;;;;;;;;;1042523;28;20036;-73
2023/08/25 02:34:15;;;;;;;0.00;0.00;;;;;;;;;;1038953;28;20064;-73
2023/08/25 02:34:45;;;;;;;0.95;0.82;;;;;;;;;;1041280;28;20523;-72
2023/08/25 02:35:16;;;;;;;2.05;1.55;;;;;;;;;;1043206;28;20028;-73
2023/08/25 02:35:46;;;;;;;0.73;0.70;;;;;;;;;;1038422;28;20490;-74
2023/08/25 02:36:17;;;;;;;1.85;0.63;;;;;;;;;;1039739;28;20500;-74
2023/08/25 02:36:47;;;;;;;0.15;0.15;;;;;;;;;;1039577;28;20032;-73
2023/08/25 02:37:18;;;;;;;0.15;0.13;;;;;;;;;;1039293;28;20019;-73
2023/08/25 02:37:59;;;;;;;0.05;0.05;;;;;;;;;;1040445;28;20457;-73
2023/08/25 02:38:29;;;;;;;1.55;0.70;;;;;;;;;;1042655;28;20024;-74
2023/08/25 02:39:00;;;;;;;0.20;0.20;;;;;;;;;;1044954;28;20028;-73
2023/08/25 02:39:30;;;;;;;0.17;0.17;;;;;;;;;;1047905;28;20463;-74
2023/08/25 02:40:02;;;;;;;1.35;1.00;;;;;;;;;;1046671;28;20217;-73
2023/08/25 02:40:33;;;;;;;0.13;0.13;;;;;;;;;;1041785;28;20060;-73
2023/08/25 02:41:06;;;;;;;0.57;0.50;;;;;;;;;;1038918;28;20025;-73
2023/08/25 02:41:36;;;;;;;1.38;0.65;;;;;;;;;;1041941;28;20059;-73
2023/08/25 02:42:06;;;;;;;0.38;0.35;;;;;;;;;;1042374;28;20017;-74
2023/08/25 02:42:37;;;;;;;0.73;0.73;;;;;;;;;;1041629;28;20083;-74
2023/08/25 02:43:07;;;;;;;1.98;1.75;;;;;;;;;;1041451;28;20021;-74
2023/08/25 02:43:38;;;;;;;0.10;0.10;;;;;;;;;;1041920;28;20175;-74
2023/08/25 02:44:09;;;;;;;1.20;0.52;;;;;;;;;;1040140;28;20029;-74
2023/08/25 02:44:39;;;;;;;2.78;1.38;;;;;;;;;;1042002;28;20396;-74
2023/08/25 02:45:09;;;;;;;4.80;0.75;;;;;;;;;;1042141;28;20413;-74
2023/08/25 02:45:41;;;;;;;1.85;0.65;;;;;;;;;;1042060;28;20025;-73
2023/08/25 02:46:12;;;;;;;0.60;0.60;;;;;;;;;;1042814;28;20480;-74
2023/08/25 02:46:43;;;;;;;1.92;1.25;;;;;;;;;;1040401;28;20022;-74
2023/08/25 02:47:13;;;;;;;0.20;0.20;;;;;;;;;;1041374;28;20025;-74
2023/08/25 02:47:44;;;;;;;0.28;0.20;;;;;;;;;;1040438;28;20431;-74
2023/08/25 02:48:14;;;;;;;1.20;0.60;;;;;;;;;;1041780;28;20306;-74
2023/08/25 02:48:45;;;;;;;0.38;0.38;;;;;;;;;;1039681;28;20033;-73
2023/08/25 02:49:15;;;;;;;2.45;0.90;;;;;;;;;;1033960;28;20033;-73
2023/08/25 02:49:46;;;;;;;0.40;0.38;;;;;;;;;;1034198;28;20213;-73
2023/08/25 02:50:16;;;;;;;0.47;0.47;;;;;;;;;;1035643;28;20028;-73
2023/08/25 02:50:47;;;;;;;0.75;0.75;;;;;;;;;;1035700;28;20485;-73
2023/08/25 02:51:17;;;;;;;0.00;0.00;;;;;;;;;;1035914;28;20012;-73
2023/08/25 02:51:47;;;;;;;0.10;0.10;;;;;;;;;;1035178;28;20107;-73
2023/08/25 02:52:21;;;;;;;3.45;1.35;;;;;;;;;;1035778;28;20633;-74
2023/08/25 02:52:52;;;;;;;0.43;0.25;;;;;;;;;;1034792;28;20500;-73
2023/08/25 02:53:22;;;;;;;0.05;0.05;;;;;;;;;;1035518;28;20039;-74
2023/08/25 02:53:52;;;;;;;0.65;0.65;;;;;;;;;;1038789;28;20056;-74
2023/08/25 02:54:23;;;;;;;0.40;0.40;;;;;;;;;;1039181;28;20365;-75
2023/08/25 02:54:54;;;;;;;0.15;0.15;;;;;;;;;;1036424;28;20493;-75
2023/08/25 02:55:24;;;;;;;0.20;0.20;;;;;;;;;;1035000;28;20044;-74
2023/08/25 02:55:55;;;;;;;0.20;0.20;;;;;;;;;;1033968;28;20021;-74
2023/08/25 02:56:26;;;;;;;0.82;0.82;;;;;;;;;;1036082;28;20453;-75
2023/08/25 02:56:57;;;;;;;0.43;0.43;;;;;;;;;;1036065;28;20025;-75
2023/08/25 02:57:27;;;;;;;1.77;1.17;;;;;;;;;;1035908;28;20020;-75
2023/08/25 02:57:57;;;;;;;0.30;0.30;;;;;;;;;;1037712;28;20543;-75
2023/08/25 02:58:28;;;;;;;0.00;0.00;;;;;;;;;;1033193;28;20033;-74
2023/08/25 02:58:59;;;;;;;0.50;0.50;;;;;;;;;;1035732;28;20439;-75
2023/08/25 02:59:29;;;;;;;0.00;0.00;;;;;;;;;;1036717;28;20089;-74
2023/08/25 03:00:00;;;;;;;0.40;0.40;;;;;;;;;;1034434;28;20413;-75
2023/08/25 03:00:30;;;;;;;0.75;0.75;;;;;;;;;;1035168;28;20456;-74
2023/08/25 03:01:02;;;;;;;0.70;0.47;;;;;;;;;;1034908;28;20022;-74
2023/08/25 03:01:33;;;;;;;0.00;0.00;;;;;;;;;;1035682;28;20021;-73
2023/08/25 03:02:03;;;;;;;0.00;0.00;;;;;;;;;;1033227;28;20030;-74
2023/08/25 03:02:34;;;;;;;15.80;3.47;;;;;;;;;;1034278;28;20025;-74
2023/08/25 03:03:04;;;;;;;0.15;0.15;;;;;;;;;;1034732;28;20554;-75
2023/08/25 03:03:35;;;;;;;4.00;1.25;;;;;;;;;;1034983;28;20429;-75
2023/08/25 03:04:05;;;;;;;3.40;2.28;;;;;;;;;;1033039;28;20029;-75
2023/08/25 03:04:35;;;;;;;0.10;0.10;;;;;;;;;;1034830;28;20021;-74
2023/08/25 03:05:11;;;;;;;3.17;0.77;;;;;;;;;;1031100;28;20111;-72
2023/08/25 03:05:41;;;;;;;2.25;1.60;;;;;;;;;;1029954;28;20038;-74
2023/08/25 03:06:11;;;;;;;0.32;0.32;;;;;;;;;;1034258;28;20033;-74
2023/08/25 03:06:42;;;;;;;0.57;0.57;;;;;;;;;;1034197;28;20029;-74
2023/08/25 03:07:13;;;;;;;11.27;0.90;;;;;;;;;;1034494;28;20446;-74
2023/08/25 03:07:43;;;;;;;0.47;0.47;;;;;;;;;;1033550;28;20878;-75
2023/08/25 03:08:15;;;;;;;0.00;0.00;;;;;;;;;;1035021;28;20026;-73
2023/08/25 03:08:46;;;;;;;0.08;0.08;;;;;;;;;;1033978;28;20326;-75
2023/08/25 03:09:16;;;;;;;0.38;0.38;;;;;;;;;;1033467;28;20029;-74
2023/08/25 03:09:47;;;;;;;0.73;0.60;;;;;;;;;;1031579;28;20017;-71
2023/08/25 03:10:17;;;;;;;1.02;0.95;;;;;;;;;;1032977;28;20325;-72
2023/08/25 03:10:48;;;;;;;0.10;0.10;;;;;;;;;;1036281;28;20063;-75
2023/08/25 03:11:18;;;;;;;0.20;0.20;;;;;;;;;;1033580;28;20028;-75
2023/08/25 03:11:49;;;;;;;0.00;0.00;;;;;;;;;;1033571;28;20025;-73
2023/08/25 03:12:20;;;;;;;0.75;0.47;;;;;;;;;;1034280;28;20021;-75
2023/08/25 03:12:50;;;;;;;0.20;0.20;;;;;;;;;;1034223;28;20127;-75
2023/08/25 03:13:21;;;;;;;0.30;0.30;;;;;;;;;;1033786;28;20029;-74
2023/08/25 03:13:51;;;;;;;0.03;0.03;;;;;;;;;;1032512;28;20513;-72
2023/08/25 03:14:22;;;;;;;0.52;0.52;;;;;;;;;;1033956;28;20336;-74
2023/08/25 03:14:53;;;;;;;0.63;0.63;;;;;;;;;;1033277;28;20024;-73
2023/08/25 03:15:23;;;;;;;7.00;0.80;;;;;;;;;;1035128;28;20917;-73
2023/08/25 03:15:54;;;;;;;0.43;0.30;;;;;;;;;;1035383;28;20024;-73
2023/08/25 03:16:24;;;;;;;13.07;0.98;;;;;;;;;;1036640;28;20029;-73
2023/08/25 03:16:55;;;;;;;0.57;0.57;;;;;;;;;;1035180;28;20456;-74